sensor_id;sensor_type;location;lat;lon;timestamp;temperature;humidity
50955;DHT22;36966;48.064;-0.792;2022-09-09T00:02:19;23.30;54.60
50955;DHT22;36966;48.064;-0.792;2022-09-09T00:04:40;23.30;54.60
50955;DHT22;36966;48.064;-0.792;2022-09-09T00:07:18;23.30;54.60
50955;DHT22;36966;48.064;-0.792;2022-09-09T00:09:46;23.30;54.60
50955;DHT22;36966;48.064;-0.792;2022-09-09T00:12:14;23.30;54.60
50955;DHT22;36966;48.064;-0.792;2022-09-09T00:14:50;23.30;54.70
50955;DHT22;36966;48.064;-0.792;2022-09-09T00:20:13;23.30;54.60
50955;DHT22;36966;48.064;-0.792;2022-09-09T00:22:33;23.20;54.70
50955;DHT22;36966;48.064;-0.792;2022-09-09T00:24:55;23.30;54.70
50955;DHT22;36966;48.064;-0.792;2022-09-09T00:27:31;23.30;54.60
50955;DHT22;36966;48.064;-0.792;2022-09-09T00:30:20;23.30;54.70
50955;DHT22;36966;48.064;-0.792;2022-09-09T00:32:43;23.30;54.70
50955;DHT22;36966;48.064;-0.792;2022-09-09T00:37:41;23.30;54.80
50955;DHT22;36966;48.064;-0.792;2022-09-09T00:40:04;23.20;54.80
50955;DHT22;36966;48.064;-0.792;2022-09-09T00:42:41;23.30;54.80
50955;DHT22;36966;48.064;-0.792;2022-09-09T00:47:46;23.20;54.80
50955;DHT22;36966;48.064;-0.792;2022-09-09T00:55:28;23.20;54.80
50955;DHT22;36966;48.064;-0.792;2022-09-09T00:57:53;23.20;54.80
50955;DHT22;36966;48.064;-0.792;2022-09-09T01:02:56;23.20;54.80
50955;DHT22;36966;48.064;-0.792;2022-09-09T01:08:28;23.20;54.80
50955;DHT22;36966;48.064;-0.792;2022-09-09T01:10:53;23.20;54.80
50955;DHT22;36966;48.064;-0.792;2022-09-09T01:13:25;23.20;54.80
50955;DHT22;36966;48.064;-0.792;2022-09-09T01:15:46;23.20;54.80
50955;DHT22;36966;48.064;-0.792;2022-09-09T01:18:11;23.20;54.80
50955;DHT22;36966;48.064;-0.792;2022-09-09T01:20:44;23.20;54.90
50955;DHT22;36966;48.064;-0.792;2022-09-09T01:28:07;23.20;54.70
50955;DHT22;36966;48.064;-0.792;2022-09-09T01:30:27;23.20;54.70
50955;DHT22;36966;48.064;-0.792;2022-09-09T01:32:54;23.20;54.80
50955;DHT22;36966;48.064;-0.792;2022-09-09T01:37:40;23.20;54.70
50955;DHT22;36966;48.064;-0.792;2022-09-09T01:39:59;23.20;54.70
50955;DHT22;36966;48.064;-0.792;2022-09-09T01:42:19;23.20;54.80
50955;DHT22;36966;48.064;-0.792;2022-09-09T01:44:38;23.20;54.80
50955;DHT22;36966;48.064;-0.792;2022-09-09T01:46:57;23.10;54.70
50955;DHT22;36966;48.064;-0.792;2022-09-09T01:49:36;23.10;54.80
50955;DHT22;36966;48.064;-0.792;2022-09-09T01:55:41;23.20;54.80
50955;DHT22;36966;48.064;-0.792;2022-09-09T02:00:43;23.10;54.80
50955;DHT22;36966;48.064;-0.792;2022-09-09T02:03:24;23.20;54.80
50955;DHT22;36966;48.064;-0.792;2022-09-09T02:05:52;23.10;54.80
50955;DHT22;36966;48.064;-0.792;2022-09-09T02:08:23;23.10;54.80
50955;DHT22;36966;48.064;-0.792;2022-09-09T02:11:11;23.10;54.80
50955;DHT22;36966;48.064;-0.792;2022-09-09T02:13:34;23.10;54.90
50955;DHT22;36966;48.064;-0.792;2022-09-09T02:16:06;23.10;54.90
50955;DHT22;36966;48.064;-0.792;2022-09-09T02:18:30;23.10;54.80
50955;DHT22;36966;48.064;-0.792;2022-09-09T02:20:52;23.10;54.90
50955;DHT22;36966;48.064;-0.792;2022-09-09T02:23:12;23.10;54.90
50955;DHT22;36966;48.064;-0.792;2022-09-09T02:25:34;23.10;54.90
50955;DHT22;36966;48.064;-0.792;2022-09-09T02:27:55;23.10;54.90
50955;DHT22;36966;48.064;-0.792;2022-09-09T02:30:18;23.10;54.90
50955;DHT22;36966;48.064;-0.792;2022-09-09T02:32:38;23.10;54.90
50955;DHT22;36966;48.064;-0.792;2022-09-09T02:35:04;23.10;55.00
50955;DHT22;36966;48.064;-0.792;2022-09-09T02:37:29;23.10;54.90
50955;DHT22;36966;48.064;-0.792;2022-09-09T02:39:50;23.10;55.00
50955;DHT22;36966;48.064;-0.792;2022-09-09T02:42:10;23.10;55.00
50955;DHT22;36966;48.064;-0.792;2022-09-09T02:44:29;23.00;54.90
50955;DHT22;36966;48.064;-0.792;2022-09-09T02:52:10;23.10;54.90
50955;DHT22;36966;48.064;-0.792;2022-09-09T02:54:37;23.10;54.90
50955;DHT22;36966;48.064;-0.792;2022-09-09T02:57:11;23.10;55.00
50955;DHT22;36966;48.064;-0.792;2022-09-09T02:59:31;23.10;55.00
50955;DHT22;36966;48.064;-0.792;2022-09-09T03:01:51;23.00;54.90
50955;DHT22;36966;48.064;-0.792;2022-09-09T03:04:10;23.00;54.90
50955;DHT22;36966;48.064;-0.792;2022-09-09T03:06:30;23.00;55.00
50955;DHT22;36966;48.064;-0.792;2022-09-09T03:08:50;23.00;55.00
50955;DHT22;36966;48.064;-0.792;2022-09-09T03:11:09;23.00;55.00
50955;DHT22;36966;48.064;-0.792;2022-09-09T03:13:29;23.00;55.00
50955;DHT22;36966;48.064;-0.792;2022-09-09T03:15:48;23.00;55.00
50955;DHT22;36966;48.064;-0.792;2022-09-09T03:18:07;23.00;54.90
50955;DHT22;36966;48.064;-0.792;2022-09-09T03:20:28;23.00;54.90
50955;DHT22;36966;48.064;-0.792;2022-09-09T03:22:47;23.00;54.90
50955;DHT22;36966;48.064;-0.792;2022-09-09T03:25:07;23.10;55.00
50955;DHT22;36966;48.064;-0.792;2022-09-09T03:27:26;23.00;54.90
50955;DHT22;36966;48.064;-0.792;2022-09-09T03:29:46;23.00;55.00
50955;DHT22;36966;48.064;-0.792;2022-09-09T03:32:05;23.00;55.00
50955;DHT22;36966;48.064;-0.792;2022-09-09T03:34:24;23.00;54.90
50955;DHT22;36966;48.064;-0.792;2022-09-09T03:36:44;23.00;55.00
50955;DHT22;36966;48.064;-0.792;2022-09-09T03:39:03;23.00;54.90
50955;DHT22;36966;48.064;-0.792;2022-09-09T03:41:23;23.00;54.90
50955;DHT22;36966;48.064;-0.792;2022-09-09T03:43:43;23.00;55.00
50955;DHT22;36966;48.064;-0.792;2022-09-09T03:46:02;23.00;54.90
50955;DHT22;36966;48.064;-0.792;2022-09-09T03:48:22;23.00;55.00
50955;DHT22;36966;48.064;-0.792;2022-09-09T03:50:46;23.00;54.90
50955;DHT22;36966;48.064;-0.792;2022-09-09T03:53:05;22.80;55.40
50955;DHT22;36966;48.064;-0.792;2022-09-09T03:55:25;22.70;55.80
50955;DHT22;36966;48.064;-0.792;2022-09-09T03:57:44;22.80;55.60
50955;DHT22;36966;48.064;-0.792;2022-09-09T04:00:06;22.80;55.40
50955;DHT22;36966;48.064;-0.792;2022-09-09T04:02:26;22.90;55.40
50955;DHT22;36966;48.064;-0.792;2022-09-09T04:04:46;22.90;55.20
50955;DHT22;36966;48.064;-0.792;2022-09-09T04:07:05;22.90;55.20
50955;DHT22;36966;48.064;-0.792;2022-09-09T04:09:25;22.90;55.20
50955;DHT22;36966;48.064;-0.792;2022-09-09T04:11:45;22.90;55.20
50955;DHT22;36966;48.064;-0.792;2022-09-09T04:14:05;22.90;55.10
50955;DHT22;36966;48.064;-0.792;2022-09-09T04:16:25;22.90;55.10
50955;DHT22;36966;48.064;-0.792;2022-09-09T04:18:45;22.90;55.20
50955;DHT22;36966;48.064;-0.792;2022-09-09T04:21:05;22.90;55.20
50955;DHT22;36966;48.064;-0.792;2022-09-09T04:23:26;22.90;55.20
50955;DHT22;36966;48.064;-0.792;2022-09-09T04:25:47;22.90;55.20
50955;DHT22;36966;48.064;-0.792;2022-09-09T04:28:07;22.90;55.20
50955;DHT22;36966;48.064;-0.792;2022-09-09T04:30:26;22.90;55.20
50955;DHT22;36966;48.064;-0.792;2022-09-09T04:32:46;22.90;55.10
50955;DHT22;36966;48.064;-0.792;2022-09-09T04:35:06;22.90;55.20
50955;DHT22;36966;48.064;-0.792;2022-09-09T04:37:25;22.90;55.30
50955;DHT22;36966;48.064;-0.792;2022-09-09T04:39:44;22.90;55.20
50955;DHT22;36966;48.064;-0.792;2022-09-09T04:42:04;22.90;55.20
50955;DHT22;36966;48.064;-0.792;2022-09-09T04:44:23;22.90;55.20
50955;DHT22;36966;48.064;-0.792;2022-09-09T04:46:42;22.90;55.30
50955;DHT22;36966;48.064;-0.792;2022-09-09T04:49:02;22.90;55.30
50955;DHT22;36966;48.064;-0.792;2022-09-09T04:51:21;22.90;55.20
50955;DHT22;36966;48.064;-0.792;2022-09-09T04:53:41;22.90;55.30
50955;DHT22;36966;48.064;-0.792;2022-09-09T04:56:05;22.90;55.30
50955;DHT22;36966;48.064;-0.792;2022-09-09T04:58:24;22.90;55.30
50955;DHT22;36966;48.064;-0.792;2022-09-09T05:00:44;22.80;55.20
50955;DHT22;36966;48.064;-0.792;2022-09-09T05:03:04;22.80;55.30
50955;DHT22;36966;48.064;-0.792;2022-09-09T05:05:24;22.80;55.20
50955;DHT22;36966;48.064;-0.792;2022-09-09T05:07:44;22.80;55.30
50955;DHT22;36966;48.064;-0.792;2022-09-09T05:10:05;22.80;55.20
50955;DHT22;36966;48.064;-0.792;2022-09-09T05:12:25;22.80;55.30
50955;DHT22;36966;48.064;-0.792;2022-09-09T05:14:44;22.80;55.20
50955;DHT22;36966;48.064;-0.792;2022-09-09T05:17:04;22.80;55.20
50955;DHT22;36966;48.064;-0.792;2022-09-09T05:19:23;22.80;55.30
50955;DHT22;36966;48.064;-0.792;2022-09-09T05:21:43;22.80;55.30
50955;DHT22;36966;48.064;-0.792;2022-09-09T05:24:02;22.80;55.30
50955;DHT22;36966;48.064;-0.792;2022-09-09T05:26:23;22.80;55.30
50955;DHT22;36966;48.064;-0.792;2022-09-09T05:28:43;22.80;55.30
50955;DHT22;36966;48.064;-0.792;2022-09-09T05:31:07;22.80;55.40
50955;DHT22;36966;48.064;-0.792;2022-09-09T05:33:31;22.80;55.40
50955;DHT22;36966;48.064;-0.792;2022-09-09T05:36:02;22.80;55.20
50955;DHT22;36966;48.064;-0.792;2022-09-09T05:38:21;22.80;55.30
50955;DHT22;36966;48.064;-0.792;2022-09-09T05:40:47;22.80;55.20
50955;DHT22;36966;48.064;-0.792;2022-09-09T05:43:07;22.80;55.30
50955;DHT22;36966;48.064;-0.792;2022-09-09T05:45:26;22.80;55.30
50955;DHT22;36966;48.064;-0.792;2022-09-09T05:47:51;22.80;55.30
50955;DHT22;36966;48.064;-0.792;2022-09-09T05:50:12;22.80;55.30
50955;DHT22;36966;48.064;-0.792;2022-09-09T05:52:33;22.80;55.30
50955;DHT22;36966;48.064;-0.792;2022-09-09T05:54:53;22.80;55.30
50955;DHT22;36966;48.064;-0.792;2022-09-09T05:57:14;22.80;55.30
50955;DHT22;36966;48.064;-0.792;2022-09-09T05:59:33;22.80;55.30
50955;DHT22;36966;48.064;-0.792;2022-09-09T06:01:52;22.80;55.30
50955;DHT22;36966;48.064;-0.792;2022-09-09T06:04:13;22.80;55.40
50955;DHT22;36966;48.064;-0.792;2022-09-09T06:06:34;22.80;55.20
50955;DHT22;36966;48.064;-0.792;2022-09-09T06:08:58;22.80;55.20
50955;DHT22;36966;48.064;-0.792;2022-09-09T06:11:23;22.80;55.20
50955;DHT22;36966;48.064;-0.792;2022-09-09T06:13:43;22.80;55.10
50955;DHT22;36966;48.064;-0.792;2022-09-09T06:16:03;22.80;55.20
50955;DHT22;36966;48.064;-0.792;2022-09-09T06:18:23;22.80;55.10
50955;DHT22;36966;48.064;-0.792;2022-09-09T06:20:43;22.90;55.10
50955;DHT22;36966;48.064;-0.792;2022-09-09T06:23:03;22.90;55.10
50955;DHT22;36966;48.064;-0.792;2022-09-09T06:25:23;22.80;55.10
50955;DHT22;36966;48.064;-0.792;2022-09-09T06:27:48;22.90;55.10
50955;DHT22;36966;48.064;-0.792;2022-09-09T06:30:09;22.90;55.10
50955;DHT22;36966;48.064;-0.792;2022-09-09T06:32:29;22.90;55.10
50955;DHT22;36966;48.064;-0.792;2022-09-09T06:34:48;22.90;55.10
50955;DHT22;36966;48.064;-0.792;2022-09-09T06:37:08;22.90;55.10
50955;DHT22;36966;48.064;-0.792;2022-09-09T06:39:27;22.90;55.10
50955;DHT22;36966;48.064;-0.792;2022-09-09T06:41:47;22.90;55.10
50955;DHT22;36966;48.064;-0.792;2022-09-09T06:44:07;22.90;55.10
50955;DHT22;36966;48.064;-0.792;2022-09-09T06:46:29;22.90;55.10
50955;DHT22;36966;48.064;-0.792;2022-09-09T06:48:49;22.90;55.10
50955;DHT22;36966;48.064;-0.792;2022-09-09T06:53:34;22.90;55.10
50955;DHT22;36966;48.064;-0.792;2022-09-09T06:55:54;22.90;55.10
50955;DHT22;36966;48.064;-0.792;2022-09-09T06:58:13;22.90;55.10
50955;DHT22;36966;48.064;-0.792;2022-09-09T07:00:33;22.90;55.10
50955;DHT22;36966;48.064;-0.792;2022-09-09T07:02:52;23.00;55.00
50955;DHT22;36966;48.064;-0.792;2022-09-09T07:05:12;23.00;55.00
50955;DHT22;36966;48.064;-0.792;2022-09-09T07:07:31;23.00;55.00
50955;DHT22;36966;48.064;-0.792;2022-09-09T07:09:50;23.00;54.90
50955;DHT22;36966;48.064;-0.792;2022-09-09T07:12:09;23.00;54.90
50955;DHT22;36966;48.064;-0.792;2022-09-09T07:14:28;23.10;54.90
50955;DHT22;36966;48.064;-0.792;2022-09-09T07:16:48;23.10;55.00
50955;DHT22;36966;48.064;-0.792;2022-09-09T07:19:08;23.10;54.90
50955;DHT22;36966;48.064;-0.792;2022-09-09T07:21:29;23.10;55.10
50955;DHT22;36966;48.064;-0.792;2022-09-09T07:23:49;23.20;55.10
50955;DHT22;36966;48.064;-0.792;2022-09-09T07:26:13;23.20;55.10
50955;DHT22;36966;48.064;-0.792;2022-09-09T07:28:33;23.20;55.00
50955;DHT22;36966;48.064;-0.792;2022-09-09T07:31:00;23.20;55.10
50955;DHT22;36966;48.064;-0.792;2022-09-09T07:33:21;23.30;54.90
50955;DHT22;36966;48.064;-0.792;2022-09-09T07:35:41;23.40;54.80
50955;DHT22;36966;48.064;-0.792;2022-09-09T07:38:01;23.40;54.70
50955;DHT22;36966;48.064;-0.792;2022-09-09T07:40:20;23.40;54.70
50955;DHT22;36966;48.064;-0.792;2022-09-09T07:42:41;23.50;54.70
50955;DHT22;36966;48.064;-0.792;2022-09-09T07:45:00;23.50;54.70
50955;DHT22;36966;48.064;-0.792;2022-09-09T07:47:19;23.50;54.60
50955;DHT22;36966;48.064;-0.792;2022-09-09T07:49:39;23.50;54.60
50955;DHT22;36966;48.064;-0.792;2022-09-09T07:51:58;23.60;54.60
50955;DHT22;36966;48.064;-0.792;2022-09-09T07:54:19;23.60;54.60
50955;DHT22;36966;48.064;-0.792;2022-09-09T07:56:40;23.60;54.60
50955;DHT22;36966;48.064;-0.792;2022-09-09T07:59:00;23.60;54.60
50955;DHT22;36966;48.064;-0.792;2022-09-09T08:01:22;23.60;54.60
50955;DHT22;36966;48.064;-0.792;2022-09-09T08:03:42;23.60;54.60
50955;DHT22;36966;48.064;-0.792;2022-09-09T08:06:08;23.60;54.60
50955;DHT22;36966;48.064;-0.792;2022-09-09T08:08:28;23.70;54.70
50955;DHT22;36966;48.064;-0.792;2022-09-09T08:10:47;23.70;54.60
50955;DHT22;36966;48.064;-0.792;2022-09-09T08:13:06;23.70;54.50
50955;DHT22;36966;48.064;-0.792;2022-09-09T08:15:27;23.70;54.60
50955;DHT22;36966;48.064;-0.792;2022-09-09T08:17:47;23.70;54.60
50955;DHT22;36966;48.064;-0.792;2022-09-09T08:20:07;23.70;54.60
50955;DHT22;36966;48.064;-0.792;2022-09-09T08:22:26;23.70;54.70
50955;DHT22;36966;48.064;-0.792;2022-09-09T08:24:46;23.80;54.60
50955;DHT22;36966;48.064;-0.792;2022-09-09T08:27:06;23.80;54.60
50955;DHT22;36966;48.064;-0.792;2022-09-09T08:29:26;23.80;54.50
50955;DHT22;36966;48.064;-0.792;2022-09-09T08:31:50;23.90;54.50
50955;DHT22;36966;48.064;-0.792;2022-09-09T08:34:10;24.00;54.70
50955;DHT22;36966;48.064;-0.792;2022-09-09T08:36:33;24.00;54.50
50955;DHT22;36966;48.064;-0.792;2022-09-09T08:38:54;24.10;54.40
50955;DHT22;36966;48.064;-0.792;2022-09-09T08:44:13;24.10;54.20
50955;DHT22;36966;48.064;-0.792;2022-09-09T08:51:34;24.10;54.20
50955;DHT22;36966;48.064;-0.792;2022-09-09T08:53:54;24.00;54.30
50955;DHT22;36966;48.064;-0.792;2022-09-09T08:56:21;24.00;54.30
50955;DHT22;36966;48.064;-0.792;2022-09-09T08:58:53;24.00;54.30
50955;DHT22;36966;48.064;-0.792;2022-09-09T09:12:19;23.80;54.60
50955;DHT22;36966;48.064;-0.792;2022-09-09T09:14:40;23.80;54.70
50955;DHT22;36966;48.064;-0.792;2022-09-09T09:17:11;23.80;54.60
50955;DHT22;36966;48.064;-0.792;2022-09-09T09:19:34;23.90;54.50
50955;DHT22;36966;48.064;-0.792;2022-09-09T09:22:21;23.90;54.60
50955;DHT22;36966;48.064;-0.792;2022-09-09T09:24:56;24.00;54.50
50955;DHT22;36966;48.064;-0.792;2022-09-09T09:29:41;24.10;54.20
50955;DHT22;36966;48.064;-0.792;2022-09-09T09:32:03;24.10;54.30
50955;DHT22;36966;48.064;-0.792;2022-09-09T09:34:23;24.20;54.30
50955;DHT22;36966;48.064;-0.792;2022-09-09T09:36:56;24.20;54.10
50955;DHT22;36966;48.064;-0.792;2022-09-09T09:39:30;24.20;54.10
50955;DHT22;36966;48.064;-0.792;2022-09-09T09:41:49;24.20;54.00
50955;DHT22;36966;48.064;-0.792;2022-09-09T09:44:25;24.20;54.00
50955;DHT22;36966;48.064;-0.792;2022-09-09T09:46:44;24.20;53.90
50955;DHT22;36966;48.064;-0.792;2022-09-09T09:49:05;24.30;53.80
50955;DHT22;36966;48.064;-0.792;2022-09-09T09:51:25;24.20;53.80
50955;DHT22;36966;48.064;-0.792;2022-09-09T09:53:45;24.30;53.80
50955;DHT22;36966;48.064;-0.792;2022-09-09T09:56:10;24.30;53.90
50955;DHT22;36966;48.064;-0.792;2022-09-09T09:58:33;24.30;53.80
50955;DHT22;36966;48.064;-0.792;2022-09-09T10:00:53;24.30;53.50
50955;DHT22;36966;48.064;-0.792;2022-09-09T10:05:45;24.30;53.60
50955;DHT22;36966;48.064;-0.792;2022-09-09T10:10:49;24.30;53.70
50955;DHT22;36966;48.064;-0.792;2022-09-09T10:13:15;24.30;53.70
50955;DHT22;36966;48.064;-0.792;2022-09-09T10:15:45;24.30;53.60
50955;DHT22;36966;48.064;-0.792;2022-09-09T10:18:27;24.30;53.70
50955;DHT22;36966;48.064;-0.792;2022-09-09T10:30:54;24.20;53.90
50955;DHT22;36966;48.064;-0.792;2022-09-09T10:36:26;24.20;53.90
50955;DHT22;36966;48.064;-0.792;2022-09-09T10:39:04;24.30;54.00
50955;DHT22;36966;48.064;-0.792;2022-09-09T10:44:15;24.30;53.70
50955;DHT22;36966;48.064;-0.792;2022-09-09T10:56:54;24.30;53.60
50955;DHT22;36966;48.064;-0.792;2022-09-09T10:59:22;24.20;53.30
50955;DHT22;36966;48.064;-0.792;2022-09-09T11:02:45;24.20;53.80
50955;DHT22;36966;48.064;-0.792;2022-09-09T11:04:48;24.20;53.90
50955;DHT22;36966;48.064;-0.792;2022-09-09T11:07:13;24.20;54.00
50955;DHT22;36966;48.064;-0.792;2022-09-09T11:09:41;24.10;54.00
50955;DHT22;36966;48.064;-0.792;2022-09-09T11:12:01;24.20;54.10
50955;DHT22;36966;48.064;-0.792;2022-09-09T11:17:06;24.20;54.20
50955;DHT22;36966;48.064;-0.792;2022-09-09T11:19:39;24.20;54.40
50955;DHT22;36966;48.064;-0.792;2022-09-09T11:22:00;24.30;54.30
50955;DHT22;36966;48.064;-0.792;2022-09-09T11:27:07;24.50;54.00
50955;DHT22;36966;48.064;-0.792;2022-09-09T11:34:42;24.70;53.40
50955;DHT22;36966;48.064;-0.792;2022-09-09T11:41:42;24.70;52.90
50955;DHT22;36966;48.064;-0.792;2022-09-09T11:44:15;24.70;52.90
50955;DHT22;36966;48.064;-0.792;2022-09-09T11:46:38;24.70;53.10
50955;DHT22;36966;48.064;-0.792;2022-09-09T11:49:03;24.70;53.10
50955;DHT22;36966;48.064;-0.792;2022-09-09T11:51:26;24.70;53.20
50955;DHT22;36966;48.064;-0.792;2022-09-09T11:53:53;24.60;53.60
50955;DHT22;36966;48.064;-0.792;2022-09-09T11:56:13;24.50;54.10
50955;DHT22;36966;48.064;-0.792;2022-09-09T11:58:37;24.50;54.70
50955;DHT22;36966;48.064;-0.792;2022-09-09T12:00:56;24.50;54.50
50955;DHT22;36966;48.064;-0.792;2022-09-09T12:05:55;24.50;54.50
50955;DHT22;36966;48.064;-0.792;2022-09-09T12:08:22;24.40;54.30
50955;DHT22;36966;48.064;-0.792;2022-09-09T12:10:54;24.40;54.20
50955;DHT22;36966;48.064;-0.792;2022-09-09T12:13:16;24.30;54.60
50955;DHT22;36966;48.064;-0.792;2022-09-09T12:15:47;24.40;54.80
50955;DHT22;36966;48.064;-0.792;2022-09-09T12:18:07;24.30;55.00
50955;DHT22;36966;48.064;-0.792;2022-09-09T12:20:36;24.40;55.40
50955;DHT22;36966;48.064;-0.792;2022-09-09T12:28:14;24.40;55.60
50955;DHT22;36966;48.064;-0.792;2022-09-09T12:33:12;24.60;55.80
50955;DHT22;36966;48.064;-0.792;2022-09-09T12:35:32;24.60;55.70
50955;DHT22;36966;48.064;-0.792;2022-09-09T12:37:54;24.60;55.50
50955;DHT22;36966;48.064;-0.792;2022-09-09T12:40:31;24.70;55.10
50955;DHT22;36966;48.064;-0.792;2022-09-09T12:42:51;24.70;54.90
50955;DHT22;36966;48.064;-0.792;2022-09-09T12:45:18;24.70;54.70
50955;DHT22;36966;48.064;-0.792;2022-09-09T12:47:42;24.70;54.70
50955;DHT22;36966;48.064;-0.792;2022-09-09T12:50:10;24.70;54.40
50955;DHT22;36966;48.064;-0.792;2022-09-09T12:52:35;24.70;54.10
50955;DHT22;36966;48.064;-0.792;2022-09-09T12:54:59;24.70;54.00
50955;DHT22;36966;48.064;-0.792;2022-09-09T12:57:22;24.80;54.10
50955;DHT22;36966;48.064;-0.792;2022-09-09T12:59:44;24.80;53.80
50955;DHT22;36966;48.064;-0.792;2022-09-09T13:04:36;24.70;53.60
50955;DHT22;36966;48.064;-0.792;2022-09-09T13:07:06;24.70;53.50
50955;DHT22;36966;48.064;-0.792;2022-09-09T13:09:26;24.70;53.40
50955;DHT22;36966;48.064;-0.792;2022-09-09T13:11:50;24.60;53.10
50955;DHT22;36966;48.064;-0.792;2022-09-09T13:14:31;24.60;53.40
50955;DHT22;36966;48.064;-0.792;2022-09-09T13:16:59;24.60;53.00
50955;DHT22;36966;48.064;-0.792;2022-09-09T13:19:19;24.60;53.40
50955;DHT22;36966;48.064;-0.792;2022-09-09T13:21:40;24.70;53.10
50955;DHT22;36966;48.064;-0.792;2022-09-09T13:23:59;24.60;53.50
50955;DHT22;36966;48.064;-0.792;2022-09-09T13:26:25;24.60;53.40
50955;DHT22;36966;48.064;-0.792;2022-09-09T13:28:44;24.70;53.60
50955;DHT22;36966;48.064;-0.792;2022-09-09T13:31:29;24.60;53.50
50955;DHT22;36966;48.064;-0.792;2022-09-09T13:33:49;24.60;53.30
50955;DHT22;36966;48.064;-0.792;2022-09-09T13:36:09;24.60;53.30
50955;DHT22;36966;48.064;-0.792;2022-09-09T13:38:52;24.60;53.40
50955;DHT22;36966;48.064;-0.792;2022-09-09T13:41:20;24.60;53.40
50955;DHT22;36966;48.064;-0.792;2022-09-09T13:43:45;24.60;53.60
50955;DHT22;36966;48.064;-0.792;2022-09-09T13:46:37;24.60;53.50
50955;DHT22;36966;48.064;-0.792;2022-09-09T13:49:02;24.60;53.60
50955;DHT22;36966;48.064;-0.792;2022-09-09T13:51:35;24.60;53.60
50955;DHT22;36966;48.064;-0.792;2022-09-09T13:53:56;24.60;53.70
50955;DHT22;36966;48.064;-0.792;2022-09-09T13:56:16;24.60;53.90
50955;DHT22;36966;48.064;-0.792;2022-09-09T13:58:36;24.60;53.90
50955;DHT22;36966;48.064;-0.792;2022-09-09T14:00:56;24.60;53.90
50955;DHT22;36966;48.064;-0.792;2022-09-09T14:03:16;24.60;54.10
50955;DHT22;36966;48.064;-0.792;2022-09-09T14:05:36;24.60;54.10
50955;DHT22;36966;48.064;-0.792;2022-09-09T14:07:57;24.70;54.00
50955;DHT22;36966;48.064;-0.792;2022-09-09T14:10:17;24.60;54.00
50955;DHT22;36966;48.064;-0.792;2022-09-09T14:12:36;24.70;53.80
50955;DHT22;36966;48.064;-0.792;2022-09-09T14:14:55;24.60;53.70
50955;DHT22;36966;48.064;-0.792;2022-09-09T14:17:14;24.70;53.70
50955;DHT22;36966;48.064;-0.792;2022-09-09T14:19:34;24.70;53.70
50955;DHT22;36966;48.064;-0.792;2022-09-09T14:21:54;24.70;53.70
50955;DHT22;36966;48.064;-0.792;2022-09-09T14:24:13;24.70;53.60
50955;DHT22;36966;48.064;-0.792;2022-09-09T14:26:33;24.70;53.60
50955;DHT22;36966;48.064;-0.792;2022-09-09T14:28:52;24.70;53.60
50955;DHT22;36966;48.064;-0.792;2022-09-09T14:31:11;24.70;53.50
50955;DHT22;36966;48.064;-0.792;2022-09-09T14:33:32;24.70;53.60
50955;DHT22;36966;48.064;-0.792;2022-09-09T14:36:03;24.70;53.80
50955;DHT22;36966;48.064;-0.792;2022-09-09T14:38:22;24.70;53.90
50955;DHT22;36966;48.064;-0.792;2022-09-09T14:40:45;24.70;54.10
50955;DHT22;36966;48.064;-0.792;2022-09-09T14:43:05;24.70;54.50
50955;DHT22;36966;48.064;-0.792;2022-09-09T14:45:25;24.70;54.60
50955;DHT22;36966;48.064;-0.792;2022-09-09T14:47:45;24.70;54.70
50955;DHT22;36966;48.064;-0.792;2022-09-09T14:50:05;24.70;55.10
50955;DHT22;36966;48.064;-0.792;2022-09-09T14:52:25;24.70;55.30
50955;DHT22;36966;48.064;-0.792;2022-09-09T14:54:44;24.60;55.10
50955;DHT22;36966;48.064;-0.792;2022-09-09T14:57:03;24.70;54.90
50955;DHT22;36966;48.064;-0.792;2022-09-09T14:59:23;24.60;55.00
50955;DHT22;36966;48.064;-0.792;2022-09-09T15:01:42;24.60;55.30
50955;DHT22;36966;48.064;-0.792;2022-09-09T15:04:03;24.60;55.70
50955;DHT22;36966;48.064;-0.792;2022-09-09T15:06:23;24.60;55.80
50955;DHT22;36966;48.064;-0.792;2022-09-09T15:08:43;24.60;55.60
50955;DHT22;36966;48.064;-0.792;2022-09-09T15:11:04;24.70;59.90
50955;DHT22;36966;48.064;-0.792;2022-09-09T15:13:23;24.60;61.20
50955;DHT22;36966;48.064;-0.792;2022-09-09T15:15:43;24.60;60.90
50955;DHT22;36966;48.064;-0.792;2022-09-09T15:18:03;24.50;61.80
50955;DHT22;36966;48.064;-0.792;2022-09-09T15:20:22;24.40;60.20
50955;DHT22;36966;48.064;-0.792;2022-09-09T15:22:41;24.30;60.40
50955;DHT22;36966;48.064;-0.792;2022-09-09T15:25:00;24.30;60.90
50955;DHT22;36966;48.064;-0.792;2022-09-09T15:27:20;24.40;60.10
50955;DHT22;36966;48.064;-0.792;2022-09-09T15:29:40;24.40;60.70
50955;DHT22;36966;48.064;-0.792;2022-09-09T15:31:59;24.50;60.90
50955;DHT22;36966;48.064;-0.792;2022-09-09T15:34:19;24.40;60.60
50955;DHT22;36966;48.064;-0.792;2022-09-09T15:36:40;24.40;61.30
50955;DHT22;36966;48.064;-0.792;2022-09-09T15:39:00;24.50;61.40
50955;DHT22;36966;48.064;-0.792;2022-09-09T15:41:21;24.40;60.10
50955;DHT22;36966;48.064;-0.792;2022-09-09T15:43:45;24.40;60.90
50955;DHT22;36966;48.064;-0.792;2022-09-09T15:46:32;24.30;60.80
50955;DHT22;36966;48.064;-0.792;2022-09-09T15:48:52;24.20;60.70
50955;DHT22;36966;48.064;-0.792;2022-09-09T15:51:11;24.40;62.40
50955;DHT22;36966;48.064;-0.792;2022-09-09T15:53:32;24.50;61.90
50955;DHT22;36966;48.064;-0.792;2022-09-09T15:55:54;24.50;61.40
50955;DHT22;36966;48.064;-0.792;2022-09-09T15:58:14;24.50;60.90
50955;DHT22;36966;48.064;-0.792;2022-09-09T16:00:34;24.40;60.90
50955;DHT22;36966;48.064;-0.792;2022-09-09T16:02:53;24.30;60.40
50955;DHT22;36966;48.064;-0.792;2022-09-09T16:05:13;24.40;60.40
50955;DHT22;36966;48.064;-0.792;2022-09-09T16:07:32;24.30;60.10
50955;DHT22;36966;48.064;-0.792;2022-09-09T16:09:54;24.30;60.50
50955;DHT22;36966;48.064;-0.792;2022-09-09T16:12:13;24.30;60.60
50955;DHT22;36966;48.064;-0.792;2022-09-09T16:14:33;24.30;60.10
50955;DHT22;36966;48.064;-0.792;2022-09-09T16:16:54;24.30;59.50
50955;DHT22;36966;48.064;-0.792;2022-09-09T16:19:13;24.40;59.70
50955;DHT22;36966;48.064;-0.792;2022-09-09T16:21:41;24.30;59.10
50955;DHT22;36966;48.064;-0.792;2022-09-09T16:24:02;24.30;59.50
50955;DHT22;36966;48.064;-0.792;2022-09-09T16:26:23;24.20;59.50
50955;DHT22;36966;48.064;-0.792;2022-09-09T16:28:43;24.20;59.50
50955;DHT22;36966;48.064;-0.792;2022-09-09T16:31:07;24.30;58.80
50955;DHT22;36966;48.064;-0.792;2022-09-09T16:33:27;24.20;58.30
50955;DHT22;36966;48.064;-0.792;2022-09-09T16:35:46;24.20;58.70
50955;DHT22;36966;48.064;-0.792;2022-09-09T16:38:05;24.20;58.30
50955;DHT22;36966;48.064;-0.792;2022-09-09T16:40:26;24.20;57.80
50955;DHT22;36966;48.064;-0.792;2022-09-09T16:42:45;24.10;56.90
50955;DHT22;36966;48.064;-0.792;2022-09-09T16:45:05;23.90;57.10
50955;DHT22;36966;48.064;-0.792;2022-09-09T16:47:25;23.90;57.60
50955;DHT22;36966;48.064;-0.792;2022-09-09T16:49:45;23.80;56.40